sensor_id;sensor_type;location;lat;lon;timestamp;P1;durP1;ratioP1;P2;durP2;ratioP2
72319;SDS011;60269;52.502;16.732;2022-11-22T00:01:41;30.40;;;10.30;;
72319;SDS011;60269;52.502;16.732;2022-11-22T00:05:13;31.70;;;10.35;;
72319;SDS011;60269;52.502;16.732;2022-11-22T00:08:45;21.10;;;6.65;;
72319;SDS011;60269;52.502;16.732;2022-11-22T00:12:17;17.07;;;5.93;;
72319;SDS011;60269;52.502;16.732;2022-11-22T00:15:58;27.67;;;8.02;;
72319;SDS011;60269;52.502;16.732;2022-11-22T00:19:31;17.77;;;7.50;;
72319;SDS011;60269;52.502;16.732;2022-11-22T00:23:04;24.40;;;7.50;;
72319;SDS011;60269;52.502;16.732;2022-11-22T00:26:35;28.75;;;10.55;;
72319;SDS011;60269;52.502;16.732;2022-11-22T00:30:08;39.05;;;11.80;;
72319;SDS011;60269;52.502;16.732;2022-11-22T00:33:40;40.55;;;10.95;;
72319;SDS011;60269;52.502;16.732;2022-11-22T00:37:12;30.17;;;10.70;;
72319;SDS011;60269;52.502;16.732;2022-11-22T00:40:44;40.60;;;12.65;;
72319;SDS011;60269;52.502;16.732;2022-11-22T00:44:16;35.55;;;12.68;;
72319;SDS011;60269;52.502;16.732;2022-11-22T00:47:47;38.90;;;12.00;;
72319;SDS011;60269;52.502;16.732;2022-11-22T00:51:19;39.60;;;13.23;;
72319;SDS011;60269;52.502;16.732;2022-11-22T00:54:51;44.85;;;13.52;;
72319;SDS011;60269;52.502;16.732;2022-11-22T00:58:25;46.27;;;14.43;;
72319;SDS011;60269;52.502;16.732;2022-11-22T01:01:57;48.97;;;14.70;;
72319;SDS011;60269;52.502;16.732;2022-11-22T01:05:29;33.58;;;12.68;;
72319;SDS011;60269;52.502;16.732;2022-11-22T01:09:01;35.33;;;12.65;;
72319;SDS011;60269;52.502;16.732;2022-11-22T01:12:34;46.77;;;14.00;;
72319;SDS011;60269;52.502;16.732;2022-11-22T01:16:07;44.80;;;15.43;;
72319;SDS011;60269;52.502;16.732;2022-11-22T01:19:40;48.97;;;16.98;;
72319;SDS011;60269;52.502;16.732;2022-11-22T01:23:12;37.60;;;14.07;;
72319;SDS011;60269;52.502;16.732;2022-11-22T01:26:44;45.58;;;14.13;;
72319;SDS011;60269;52.502;16.732;2022-11-22T01:30:16;41.15;;;12.25;;
72319;SDS011;60269;52.502;16.732;2022-11-22T01:33:48;36.17;;;12.43;;
72319;SDS011;60269;52.502;16.732;2022-11-22T01:37:20;39.75;;;12.52;;
72319;SDS011;60269;52.502;16.732;2022-11-22T01:40:52;36.03;;;10.95;;
72319;SDS011;60269;52.502;16.732;2022-11-22T01:44:28;39.42;;;11.98;;
72319;SDS011;60269;52.502;16.732;2022-11-22T01:48:06;35.80;;;12.33;;
72319;SDS011;60269;52.502;16.732;2022-11-22T01:51:48;37.28;;;11.68;;
72319;SDS011;60269;52.502;16.732;2022-11-22T01:55:24;34.38;;;12.15;;
72319;SDS011;60269;52.502;16.732;2022-11-22T01:58:57;42.83;;;12.90;;
72319;SDS011;60269;52.502;16.732;2022-11-22T02:02:33;33.78;;;11.10;;
72319;SDS011;60269;52.502;16.732;2022-11-22T02:06:06;37.80;;;12.35;;
72319;SDS011;60269;52.502;16.732;2022-11-22T02:09:38;44.90;;;13.30;;
72319;SDS011;60269;52.502;16.732;2022-11-22T02:13:12;48.13;;;13.57;;
72319;SDS011;60269;52.502;16.732;2022-11-22T02:16:45;44.00;;;14.25;;
72319;SDS011;60269;52.502;16.732;2022-11-22T02:20:19;38.30;;;11.27;;
72319;SDS011;60269;52.502;16.732;2022-11-22T02:24:06;46.73;;;13.37;;
72319;SDS011;60269;52.502;16.732;2022-11-22T02:27:45;44.35;;;13.68;;
72319;SDS011;60269;52.502;16.732;2022-11-22T02:31:38;49.28;;;13.85;;
72319;SDS011;60269;52.502;16.732;2022-11-22T02:35:19;31.13;;;10.60;;
72319;SDS011;60269;52.502;16.732;2022-11-22T02:38:52;35.30;;;10.73;;
72319;SDS011;60269;52.502;16.732;2022-11-22T02:42:24;44.38;;;12.50;;
72319;SDS011;60269;52.502;16.732;2022-11-22T02:46:07;39.40;;;11.60;;
72319;SDS011;60269;52.502;16.732;2022-11-22T02:49:43;29.90;;;9.93;;
72319;SDS011;60269;52.502;16.732;2022-11-22T02:53:15;30.73;;;11.30;;
72319;SDS011;60269;52.502;16.732;2022-11-22T02:56:47;36.97;;;10.95;;
72319;SDS011;60269;52.502;16.732;2022-11-22T03:00:19;38.70;;;11.07;;
72319;SDS011;60269;52.502;16.732;2022-11-22T03:03:51;34.22;;;11.32;;
72319;SDS011;60269;52.502;16.732;2022-11-22T03:07:23;43.63;;;12.70;;
72319;SDS011;60269;52.502;16.732;2022-11-22T03:10:56;37.17;;;10.97;;
72319;SDS011;60269;52.502;16.732;2022-11-22T03:14:29;37.38;;;12.55;;
72319;SDS011;60269;52.502;16.732;2022-11-22T03:18:02;35.30;;;10.70;;
72319;SDS011;60269;52.502;16.732;2022-11-22T03:21:36;38.73;;;11.23;;
72319;SDS011;60269;52.502;16.732;2022-11-22T03:25:08;39.88;;;11.18;;
72319;SDS011;60269;52.502;16.732;2022-11-22T03:28:40;42.25;;;12.32;;
72319;SDS011;60269;52.502;16.732;2022-11-22T03:32:12;35.75;;;10.23;;
72319;SDS011;60269;52.502;16.732;2022-11-22T03:35:44;43.00;;;12.00;;
72319;SDS011;60269;52.502;16.732;2022-11-22T03:39:16;45.22;;;12.98;;
72319;SDS011;60269;52.502;16.732;2022-11-22T03:42:48;37.67;;;10.13;;
72319;SDS011;60269;52.502;16.732;2022-11-22T03:46:19;41.33;;;12.20;;
72319;SDS011;60269;52.502;16.732;2022-11-22T03:49:52;41.55;;;10.80;;
72319;SDS011;60269;52.502;16.732;2022-11-22T03:53:23;41.55;;;12.55;;
72319;SDS011;60269;52.502;16.732;2022-11-22T03:56:55;36.63;;;12.83;;
72319;SDS011;60269;52.502;16.732;2022-11-22T04:00:27;47.05;;;12.27;;
72319;SDS011;60269;52.502;16.732;2022-11-22T04:03:59;43.63;;;12.05;;
72319;SDS011;60269;52.502;16.732;2022-11-22T04:07:31;45.08;;;12.35;;
72319;SDS011;60269;52.502;16.732;2022-11-22T04:11:03;47.40;;;13.33;;
72319;SDS011;60269;52.502;16.732;2022-11-22T04:14:35;50.45;;;13.73;;
72319;SDS011;60269;52.502;16.732;2022-11-22T04:18:25;43.35;;;13.73;;
72319;SDS011;60269;52.502;16.732;2022-11-22T04:21:57;48.53;;;14.03;;
72319;SDS011;60269;52.502;16.732;2022-11-22T04:25:30;43.80;;;13.10;;
72319;SDS011;60269;52.502;16.732;2022-11-22T04:29:03;41.65;;;12.10;;
72319;SDS011;60269;52.502;16.732;2022-11-22T04:32:42;41.13;;;13.73;;
72319;SDS011;60269;52.502;16.732;2022-11-22T04:36:16;42.78;;;13.23;;
72319;SDS011;60269;52.502;16.732;2022-11-22T04:39:48;41.50;;;13.43;;
72319;SDS011;60269;52.502;16.732;2022-11-22T04:43:21;43.75;;;12.32;;
72319;SDS011;60269;52.502;16.732;2022-11-22T04:47:15;46.73;;;12.97;;
72319;SDS011;60269;52.502;16.732;2022-11-22T04:51:08;51.40;;;14.30;;
72319;SDS011;60269;52.502;16.732;2022-11-22T04:55:03;46.20;;;13.98;;
72319;SDS011;60269;52.502;16.732;2022-11-22T04:58:34;40.33;;;11.93;;
72319;SDS011;60269;52.502;16.732;2022-11-22T05:02:06;48.30;;;13.82;;
72319;SDS011;60269;52.502;16.732;2022-11-22T05:05:41;57.33;;;15.27;;
72319;SDS011;60269;52.502;16.732;2022-11-22T05:09:14;45.97;;;13.97;;
72319;SDS011;60269;52.502;16.732;2022-11-22T05:12:46;41.20;;;11.23;;
72319;SDS011;60269;52.502;16.732;2022-11-22T05:16:21;36.92;;;11.55;;
72319;SDS011;60269;52.502;16.732;2022-11-22T05:19:53;44.28;;;13.48;;
72319;SDS011;60269;52.502;16.732;2022-11-22T05:23:25;43.07;;;10.97;;
72319;SDS011;60269;52.502;16.732;2022-11-22T05:27:16;37.97;;;11.07;;
72319;SDS011;60269;52.502;16.732;2022-11-22T05:30:48;46.08;;;13.07;;
72319;SDS011;60269;52.502;16.732;2022-11-22T05:34:20;53.57;;;15.47;;
72319;SDS011;60269;52.502;16.732;2022-11-22T05:37:52;49.40;;;14.45;;
72319;SDS011;60269;52.502;16.732;2022-11-22T05:41:26;62.53;;;15.82;;
72319;SDS011;60269;52.502;16.732;2022-11-22T05:44:58;45.80;;;16.03;;
72319;SDS011;60269;52.502;16.732;2022-11-22T05:48:30;56.00;;;16.15;;
72319;SDS011;60269;52.502;16.732;2022-11-22T05:52:02;61.90;;;17.77;;
72319;SDS011;60269;52.502;16.732;2022-11-22T05:55:34;58.03;;;15.57;;
72319;SDS011;60269;52.502;16.732;2022-11-22T05:59:06;45.77;;;12.37;;
72319;SDS011;60269;52.502;16.732;2022-11-22T06:02:38;44.53;;;13.88;;
72319;SDS011;60269;52.502;16.732;2022-11-22T06:06:10;45.28;;;13.90;;
72319;SDS011;60269;52.502;16.732;2022-11-22T06:09:42;46.90;;;13.77;;
72319;SDS011;60269;52.502;16.732;2022-11-22T06:13:14;53.75;;;12.98;;
72319;SDS011;60269;52.502;16.732;2022-11-22T06:16:46;50.92;;;15.00;;
72319;SDS011;60269;52.502;16.732;2022-11-22T06:20:18;48.07;;;14.47;;
72319;SDS011;60269;52.502;16.732;2022-11-22T06:23:50;45.13;;;15.23;;
72319;SDS011;60269;52.502;16.732;2022-11-22T06:27:23;41.67;;;12.60;;
72319;SDS011;60269;52.502;16.732;2022-11-22T06:31:03;57.25;;;13.48;;
72319;SDS011;60269;52.502;16.732;2022-11-22T06:34:36;49.23;;;14.97;;
72319;SDS011;60269;52.502;16.732;2022-11-22T06:38:07;56.85;;;15.20;;
72319;SDS011;60269;52.502;16.732;2022-11-22T06:41:39;50.80;;;13.82;;
72319;SDS011;60269;52.502;16.732;2022-11-22T06:45:11;47.00;;;14.10;;
72319;SDS011;60269;52.502;16.732;2022-11-22T06:48:43;51.47;;;14.90;;
72319;SDS011;60269;52.502;16.732;2022-11-22T06:52:15;47.40;;;13.90;;
72319;SDS011;60269;52.502;16.732;2022-11-22T06:55:47;53.03;;;14.43;;
72319;SDS011;60269;52.502;16.732;2022-11-22T06:59:22;51.60;;;14.95;;
72319;SDS011;60269;52.502;16.732;2022-11-22T07:02:54;56.85;;;14.40;;
72319;SDS011;60269;52.502;16.732;2022-11-22T07:06:35;55.55;;;15.50;;
72319;SDS011;60269;52.502;16.732;2022-11-22T07:10:09;54.87;;;16.93;;
72319;SDS011;60269;52.502;16.732;2022-11-22T07:13:41;46.05;;;14.13;;
72319;SDS011;60269;52.502;16.732;2022-11-22T07:17:13;51.55;;;14.73;;
72319;SDS011;60269;52.502;16.732;2022-11-22T07:20:45;43.97;;;11.80;;
72319;SDS011;60269;52.502;16.732;2022-11-22T07:24:17;49.30;;;12.85;;
72319;SDS011;60269;52.502;16.732;2022-11-22T07:27:52;54.25;;;14.13;;
72319;SDS011;60269;52.502;16.732;2022-11-22T07:31:24;46.53;;;13.13;;
72319;SDS011;60269;52.502;16.732;2022-11-22T07:34:56;48.80;;;13.55;;
72319;SDS011;60269;52.502;16.732;2022-11-22T07:38:28;38.58;;;11.45;;
72319;SDS011;60269;52.502;16.732;2022-11-22T07:42:00;49.15;;;12.95;;
72319;SDS011;60269;52.502;16.732;2022-11-22T07:45:32;46.17;;;12.97;;
72319;SDS011;60269;52.502;16.732;2022-11-22T07:49:03;56.30;;;15.55;;
72319;SDS011;60269;52.502;16.732;2022-11-22T07:52:36;48.03;;;14.88;;
72319;SDS011;60269;52.502;16.732;2022-11-22T07:56:07;41.37;;;14.07;;
72319;SDS011;60269;52.502;16.732;2022-11-22T07:59:39;43.53;;;13.25;;
72319;SDS011;60269;52.502;16.732;2022-11-22T08:03:11;50.17;;;14.75;;
72319;SDS011;60269;52.502;16.732;2022-11-22T08:06:48;55.13;;;16.20;;
72319;SDS011;60269;52.502;16.732;2022-11-22T08:10:20;54.42;;;16.02;;
72319;SDS011;60269;52.502;16.732;2022-11-22T08:13:52;43.33;;;15.73;;
72319;SDS011;60269;52.502;16.732;2022-11-22T08:17:24;55.38;;;16.30;;
72319;SDS011;60269;52.502;16.732;2022-11-22T08:21:04;55.50;;;16.97;;
72319;SDS011;60269;52.502;16.732;2022-11-22T08:24:38;56.17;;;19.17;;
72319;SDS011;60269;52.502;16.732;2022-11-22T08:28:10;70.18;;;21.98;;
72319;SDS011;60269;52.502;16.732;2022-11-22T08:31:42;68.60;;;21.60;;
72319;SDS011;60269;52.502;16.732;2022-11-22T08:35:14;62.60;;;19.42;;
72319;SDS011;60269;52.502;16.732;2022-11-22T08:38:46;67.20;;;21.60;;
72319;SDS011;60269;52.502;16.732;2022-11-22T08:42:17;55.50;;;18.77;;
72319;SDS011;60269;52.502;16.732;2022-11-22T08:45:53;52.47;;;14.38;;
72319;SDS011;60269;52.502;16.732;2022-11-22T08:49:27;55.95;;;19.25;;
72319;SDS011;60269;52.502;16.732;2022-11-22T08:53:00;61.63;;;17.65;;
72319;SDS011;60269;52.502;16.732;2022-11-22T08:56:32;48.23;;;15.23;;
72319;SDS011;60269;52.502;16.732;2022-11-22T09:00:04;75.05;;;23.38;;
72319;SDS011;60269;52.502;16.732;2022-11-22T09:03:37;69.93;;;23.23;;
72319;SDS011;60269;52.502;16.732;2022-11-22T09:07:09;66.40;;;18.70;;
72319;SDS011;60269;52.502;16.732;2022-11-22T09:11:01;58.97;;;19.15;;
72319;SDS011;60269;52.502;16.732;2022-11-22T09:14:34;71.28;;;21.17;;
72319;SDS011;60269;52.502;16.732;2022-11-22T09:18:06;49.03;;;16.60;;
72319;SDS011;60269;52.502;16.732;2022-11-22T09:21:38;52.55;;;17.10;;
72319;SDS011;60269;52.502;16.732;2022-11-22T09:25:10;49.58;;;13.73;;
72319;SDS011;60269;52.502;16.732;2022-11-22T09:28:42;43.67;;;13.73;;
72319;SDS011;60269;52.502;16.732;2022-11-22T09:32:15;58.23;;;17.57;;
72319;SDS011;60269;52.502;16.732;2022-11-22T09:35:47;51.00;;;15.32;;
72319;SDS011;60269;52.502;16.732;2022-11-22T09:39:19;56.15;;;16.92;;
72319;SDS011;60269;52.502;16.732;2022-11-22T09:54:26;47.40;;;14.63;;
72319;SDS011;60269;52.502;16.732;2022-11-22T09:58:09;44.55;;;14.38;;
72319;SDS011;60269;52.502;16.732;2022-11-22T10:05:23;47.13;;;14.43;;
72319;SDS011;60269;52.502;16.732;2022-11-22T10:09:03;57.83;;;15.23;;
72319;SDS011;60269;52.502;16.732;2022-11-22T10:13:27;37.58;;;12.90;;
72319;SDS011;60269;52.502;16.732;2022-11-22T10:17:06;47.70;;;14.27;;
72319;SDS011;60269;52.502;16.732;2022-11-22T10:20:50;48.57;;;14.27;;
72319;SDS011;60269;52.502;16.732;2022-11-22T10:24:23;42.35;;;14.40;;
72319;SDS011;60269;52.502;16.732;2022-11-22T10:27:56;71.35;;;17.50;;
72319;SDS011;60269;52.502;16.732;2022-11-22T10:31:42;57.27;;;16.87;;
72319;SDS011;60269;52.502;16.732;2022-11-22T10:35:34;48.65;;;16.23;;
72319;SDS011;60269;52.502;16.732;2022-11-22T10:42:57;49.80;;;14.85;;
72319;SDS011;60269;52.502;16.732;2022-11-22T10:55:16;46.22;;;13.55;;
72319;SDS011;60269;52.502;16.732;2022-11-22T11:07:02;57.00;;;16.02;;
72319;SDS011;60269;52.502;16.732;2022-11-22T11:10:44;50.50;;;13.77;;
72319;SDS011;60269;52.502;16.732;2022-11-22T11:14:25;45.22;;;13.38;;
72319;SDS011;60269;52.502;16.732;2022-11-22T11:18:01;50.70;;;14.00;;
72319;SDS011;60269;52.502;16.732;2022-11-22T11:21:36;52.08;;;15.73;;
72319;SDS011;60269;52.502;16.732;2022-11-22T11:32:51;45.58;;;12.68;;
72319;SDS011;60269;52.502;16.732;2022-11-22T11:36:25;47.63;;;13.17;;
72319;SDS011;60269;52.502;16.732;2022-11-22T11:39:58;52.85;;;15.27;;
72319;SDS011;60269;52.502;16.732;2022-11-22T11:43:29;45.67;;;13.60;;
72319;SDS011;60269;52.502;16.732;2022-11-22T11:47:04;40.53;;;12.33;;
72319;SDS011;60269;52.502;16.732;2022-11-22T11:50:36;45.90;;;12.55;;
72319;SDS011;60269;52.502;16.732;2022-11-22T11:54:10;43.80;;;12.63;;
72319;SDS011;60269;52.502;16.732;2022-11-22T11:57:44;43.33;;;12.18;;
72319;SDS011;60269;52.502;16.732;2022-11-22T12:01:17;48.87;;;12.50;;
72319;SDS011;60269;52.502;16.732;2022-11-22T12:04:53;48.58;;;14.48;;
72319;SDS011;60269;52.502;16.732;2022-11-22T12:08:31;49.15;;;14.45;;
72319;SDS011;60269;52.502;16.732;2022-11-22T12:12:08;57.90;;;18.03;;
72319;SDS011;60269;52.502;16.732;2022-11-22T12:16:10;43.90;;;15.55;;
72319;SDS011;60269;52.502;16.732;2022-11-22T12:23:35;42.00;;;11.00;;
72319;SDS011;60269;52.502;16.732;2022-11-22T12:27:21;40.92;;;10.60;;
72319;SDS011;60269;52.502;16.732;2022-11-22T12:34:30;43.13;;;11.55;;
72319;SDS011;60269;52.502;16.732;2022-11-22T12:41:57;42.22;;;11.57;;
72319;SDS011;60269;52.502;16.732;2022-11-22T12:45:42;53.92;;;14.75;;
72319;SDS011;60269;52.502;16.732;2022-11-22T12:53:05;49.65;;;13.35;;
72319;SDS011;60269;52.502;16.732;2022-11-22T12:56:51;50.63;;;12.88;;
72319;SDS011;60269;52.502;16.732;2022-11-22T13:00:26;51.87;;;14.10;;
72319;SDS011;60269;52.502;16.732;2022-11-22T13:11:53;50.08;;;13.18;;
72319;SDS011;60269;52.502;16.732;2022-11-22T13:15:30;46.90;;;14.77;;
72319;SDS011;60269;52.502;16.732;2022-11-22T13:19:05;52.47;;;13.85;;
72319;SDS011;60269;52.502;16.732;2022-11-22T13:26:28;61.03;;;14.50;;
72319;SDS011;60269;52.502;16.732;2022-11-22T13:30:03;55.65;;;15.88;;
72319;SDS011;60269;52.502;16.732;2022-11-22T13:33:37;55.55;;;15.98;;
72319;SDS011;60269;52.502;16.732;2022-11-22T13:37:14;52.77;;;15.63;;
72319;SDS011;60269;52.502;16.732;2022-11-22T13:40:47;56.13;;;14.48;;
72319;SDS011;60269;52.502;16.732;2022-11-22T13:47:55;58.97;;;16.80;;
72319;SDS011;60269;52.502;16.732;2022-11-22T13:51:47;43.43;;;15.23;;
72319;SDS011;60269;52.502;16.732;2022-11-22T13:55:26;73.28;;;22.20;;
72319;SDS011;60269;52.502;16.732;2022-11-22T13:59:04;85.03;;;24.15;;
72319;SDS011;60269;52.502;16.732;2022-11-22T14:02:45;69.93;;;21.57;;
72319;SDS011;60269;52.502;16.732;2022-11-22T14:06:47;53.63;;;17.10;;
72319;SDS011;60269;52.502;16.732;2022-11-22T14:10:26;68.35;;;17.35;;
72319;SDS011;60269;52.502;16.732;2022-11-22T14:14:24;55.93;;;16.27;;
72319;SDS011;60269;52.502;16.732;2022-11-22T14:22:15;61.28;;;17.27;;
72319;SDS011;60269;52.502;16.732;2022-11-22T14:25:57;63.83;;;17.58;;
72319;SDS011;60269;52.502;16.732;2022-11-22T14:29:57;77.10;;;20.30;;
72319;SDS011;60269;52.502;16.732;2022-11-22T14:33:32;62.40;;;18.05;;
72319;SDS011;60269;52.502;16.732;2022-11-22T14:40:45;67.50;;;19.17;;
72319;SDS011;60269;52.502;16.732;2022-11-22T14:44:19;53.05;;;15.82;;
72319;SDS011;60269;52.502;16.732;2022-11-22T14:48:13;119.55;;;37.80;;
72319;SDS011;60269;52.502;16.732;2022-11-22T14:51:51;99.57;;;27.53;;
72319;SDS011;60269;52.502;16.732;2022-11-22T14:55:28;121.88;;;28.75;;
72319;SDS011;60269;52.502;16.732;2022-11-22T15:11:27;64.03;;;16.90;;
72319;SDS011;60269;52.502;16.732;2022-11-22T15:23:29;64.93;;;17.50;;
72319;SDS011;60269;52.502;16.732;2022-11-22T15:27:26;56.88;;;17.17;;
72319;SDS011;60269;52.502;16.732;2022-11-22T15:31:57;63.03;;;20.17;;
72319;SDS011;60269;52.502;16.732;2022-11-22T15:36:04;62.28;;;17.90;;
72319;SDS011;60269;52.502;16.732;2022-11-22T15:40:17;50.58;;;16.08;;
72319;SDS011;60269;52.502;16.732;2022-11-22T15:44:10;67.65;;;21.85;;
72319;SDS011;60269;52.502;16.732;2022-11-22T15:48:14;62.03;;;19.93;;
72319;SDS011;60269;52.502;16.732;2022-11-22T15:52:19;80.22;;;23.02;;
72319;SDS011;60269;52.502;16.732;2022-11-22T16:00:41;66.70;;;20.50;;
72319;SDS011;60269;52.502;16.732;2022-11-22T16:04:18;66.97;;;21.02;;
72319;SDS011;60269;52.502;16.732;2022-11-22T16:07:53;75.07;;;23.80;;
72319;SDS011;60269;52.502;16.732;2022-11-22T16:11:30;65.10;;;21.60;;
72319;SDS011;60269;52.502;16.732;2022-11-22T16:15:17;52.70;;;20.40;;
72319;SDS011;60269;52.502;16.732;2022-11-22T16:18:50;56.85;;;18.63;;
72319;SDS011;60269;52.502;16.732;2022-11-22T16:22:29;70.18;;;22.88;;
72319;SDS011;60269;52.502;16.732;2022-11-22T16:29:55;60.35;;;20.55;;
72319;SDS011;60269;52.502;16.732;2022-11-22T16:33:29;62.03;;;21.27;;
72319;SDS011;60269;52.502;16.732;2022-11-22T16:37:21;64.13;;;20.70;;
72319;SDS011;60269;52.502;16.732;2022-11-22T16:41:25;69.90;;;22.55;;
72319;SDS011;60269;52.502;16.732;2022-11-22T16:44:58;70.75;;;23.00;;
72319;SDS011;60269;52.502;16.732;2022-11-22T16:48:35;58.27;;;20.37;;
72319;SDS011;60269;52.502;16.732;2022-11-22T16:52:11;64.60;;;22.27;;
72319;SDS011;60269;52.502;16.732;2022-11-22T16:55:43;53.67;;;19.65;;
72319;SDS011;60269;52.502;16.732;2022-11-22T16:59:15;72.50;;;22.23;;
72319;SDS011;60269;52.502;16.732;2022-11-22T17:02:47;59.70;;;20.40;;
72319;SDS011;60269;52.502;16.732;2022-11-22T17:06:20;57.47;;;20.98;;
72319;SDS011;60269;52.502;16.732;2022-11-22T17:09:54;65.57;;;23.05;;
72319;SDS011;60269;52.502;16.732;2022-11-22T17:13:26;66.90;;;21.00;;
72319;SDS011;60269;52.502;16.732;2022-11-22T17:16:59;61.17;;;20.15;;
72319;SDS011;60269;52.502;16.732;2022-11-22T17:20:31;63.88;;;21.65;;
72319;SDS011;60269;52.502;16.732;2022-11-22T17:24:04;72.00;;;22.40;;
72319;SDS011;60269;52.502;16.732;2022-11-22T17:27:37;56.85;;;19.70;;
72319;SDS011;60269;52.502;16.732;2022-11-22T17:31:12;58.60;;;19.52;;
72319;SDS011;60269;52.502;16.732;2022-11-22T17:34:50;57.50;;;18.85;;
72319;SDS011;60269;52.502;16.732;2022-11-22T17:38:22;60.70;;;18.20;;
72319;SDS011;60269;52.502;16.732;2022-11-22T17:41:53;61.80;;;18.40;;
72319;SDS011;60269;52.502;16.732;2022-11-22T17:45:27;63.28;;;19.30;;
72319;SDS011;60269;52.502;16.732;2022-11-22T17:49:00;58.27;;;19.77;;
72319;SDS011;60269;52.502;16.732;2022-11-22T17:52:32;55.85;;;19.33;;
72319;SDS011;60269;52.502;16.732;2022-11-22T17:56:04;67.43;;;22.02;;
72319;SDS011;60269;52.502;16.732;2022-11-22T17:59:42;68.17;;;21.37;;
72319;SDS011;60269;52.502;16.732;2022-11-22T18:03:15;67.13;;;21.27;;
72319;SDS011;60269;52.502;16.732;2022-11-22T18:06:47;63.13;;;20.27;;
72319;SDS011;60269;52.502;16.732;2022-11-22T18:10:22;70.50;;;22.45;;
72319;SDS011;60269;52.502;16.732;2022-11-22T18:13:54;59.30;;;20.93;;
72319;SDS011;60269;52.502;16.732;2022-11-22T18:17:25;65.60;;;21.85;;
72319;SDS011;60269;52.502;16.732;2022-11-22T18:20:57;68.78;;;21.52;;
72319;SDS011;60269;52.502;16.732;2022-11-22T18:24:29;69.30;;;22.17;;
72319;SDS011;60269;52.502;16.732;2022-11-22T18:28:01;73.63;;;22.02;;
72319;SDS011;60269;52.502;16.732;2022-11-22T18:31:33;61.97;;;20.98;;
72319;SDS011;60269;52.502;16.732;2022-11-22T18:35:23;64.50;;;21.70;;
72319;SDS011;60269;52.502;16.732;2022-11-22T18:38:54;63.53;;;22.13;;
72319;SDS011;60269;52.502;16.732;2022-11-22T18:42:27;69.20;;;22.88;;
72319;SDS011;60269;52.502;16.732;2022-11-22T18:45:59;88.65;;;28.90;;
72319;SDS011;60269;52.502;16.732;2022-11-22T18:49:32;65.70;;;21.87;;
72319;SDS011;60269;52.502;16.732;2022-11-22T18:53:05;64.07;;;22.90;;
72319;SDS011;60269;52.502;16.732;2022-11-22T18:56:37;64.35;;;22.42;;
72319;SDS011;60269;52.502;16.732;2022-11-22T19:00:11;71.13;;;23.73;;
72319;SDS011;60269;52.502;16.732;2022-11-22T19:03:44;69.80;;;23.70;;
72319;SDS011;60269;52.502;16.732;2022-11-22T19:07:16;72.00;;;23.83;;
72319;SDS011;60269;52.502;16.732;2022-11-22T19:10:55;82.50;;;24.07;;
72319;SDS011;60269;52.502;16.732;2022-11-22T19:14:27;68.47;;;22.40;;
72319;SDS011;60269;52.502;16.732;2022-11-22T19:18:00;68.93;;;24.27;;
72319;SDS011;60269;52.502;16.732;2022-11-22T19:21:32;70.97;;;24.15;;
72319;SDS011;60269;52.502;16.732;2022-11-22T19:25:04;74.17;;;24.00;;
72319;SDS011;60269;52.502;16.732;2022-11-22T19:28:37;82.97;;;25.60;;
72319;SDS011;60269;52.502;16.732;2022-11-22T19:32:09;76.65;;;24.45;;
72319;SDS011;60269;52.502;16.732;2022-11-22T19:35:40;80.07;;;23.17;;
72319;SDS011;60269;52.502;16.732;2022-11-22T19:39:13;78.55;;;23.70;;
72319;SDS011;60269;52.502;16.732;2022-11-22T19:42:46;78.03;;;24.08;;
72319;SDS011;60269;52.502;16.732;2022-11-22T19:46:18;72.27;;;23.37;;
72319;SDS011;60269;52.502;16.732;2022-11-22T19:49:50;68.25;;;22.55;;
72319;SDS011;60269;52.502;16.732;2022-11-22T19:53:23;68.13;;;22.35;;
72319;SDS011;60269;52.502;16.732;2022-11-22T19:56:55;70.25;;;23.27;;
72319;SDS011;60269;52.502;16.732;2022-11-22T20:00:27;72.87;;;22.40;;
72319;SDS011;60269;52.502;16.732;2022-11-22T20:04:00;71.03;;;24.15;;
72319;SDS011;60269;52.502;16.732;2022-11-22T20:07:34;77.28;;;26.92;;
72319;SDS011;60269;52.502;16.732;2022-11-22T20:11:09;83.23;;;27.97;;
72319;SDS011;60269;52.502;16.732;2022-11-22T20:14:42;101.13;;;31.90;;
72319;SDS011;60269;52.502;16.732;2022-11-22T20:18:14;82.00;;;28.13;;
72319;SDS011;60269;52.502;16.732;2022-11-22T20:21:47;81.97;;;30.83;;
72319;SDS011;60269;52.502;16.732;2022-11-22T20:25:20;81.68;;;28.50;;
72319;SDS011;60269;52.502;16.732;2022-11-22T20:28:57;81.18;;;26.58;;
72319;SDS011;60269;52.502;16.732;2022-11-22T20:32:33;68.45;;;24.83;;
72319;SDS011;60269;52.502;16.732;2022-11-22T20:36:07;90.30;;;29.97;;
72319;SDS011;60269;52.502;16.732;2022-11-22T20:39:41;73.72;;;25.75;;
72319;SDS011;60269;52.502;16.732;2022-11-22T20:43:13;75.32;;;24.70;;
72319;SDS011;60269;52.502;16.732;2022-11-22T20:46:44;61.80;;;22.90;;
72319;SDS011;60269;52.502;16.732;2022-11-22T20:50:16;75.03;;;25.65;;
72319;SDS011;60269;52.502;16.732;2022-11-22T20:53:50;61.47;;;22.73;;
72319;SDS011;60269;52.502;16.732;2022-11-22T20:57:22;74.67;;;24.03;;
72319;SDS011;60269;52.502;16.732;2022-11-22T21:00:55;72.05;;;22.05;;
72319;SDS011;60269;52.502;16.732;2022-11-22T21:04:27;68.47;;;22.58;;
72319;SDS011;60269;52.502;16.732;2022-11-22T21:08:00;58.75;;;21.23;;
72319;SDS011;60269;52.502;16.732;2022-11-22T21:11:36;60.17;;;20.77;;
72319;SDS011;60269;52.502;16.732;2022-11-22T21:15:09;66.95;;;23.15;;
72319;SDS011;60269;52.502;16.732;2022-11-22T21:18:42;70.00;;;23.60;;
72319;SDS011;60269;52.502;16.732;2022-11-22T21:22:13;63.30;;;21.57;;
72319;SDS011;60269;52.502;16.732;2022-11-22T21:25:45;73.60;;;25.77;;
72319;SDS011;60269;52.502;16.732;2022-11-22T21:29:17;86.75;;;30.63;;
72319;SDS011;60269;52.502;16.732;2022-11-22T21:32:49;74.90;;;26.70;;
72319;SDS011;60269;52.502;16.732;2022-11-22T21:36:21;67.40;;;25.05;;
72319;SDS011;60269;52.502;16.732;2022-11-22T21:39:53;58.97;;;20.10;;
72319;SDS011;60269;52.502;16.732;2022-11-22T21:43:26;58.90;;;22.20;;
72319;SDS011;60269;52.502;16.732;2022-11-22T21:46:59;62.70;;;22.80;;
72319;SDS011;60269;52.502;16.732;2022-11-22T21:50:30;65.90;;;21.40;;
72319;SDS011;60269;52.502;16.732;2022-11-22T21:54:02;62.17;;;22.70;;
72319;SDS011;60269;52.502;16.732;2022-11-22T21:57:34;63.27;;;20.80;;
72319;SDS011;60269;52.502;16.732;2022-11-22T22:01:07;71.68;;;23.67;;
72319;SDS011;60269;52.502;16.732;2022-11-22T22:04:45;62.03;;;20.17;;
72319;SDS011;60269;52.502;16.732;2022-11-22T22:08:17;68.23;;;22.27;;
72319;SDS011;60269;52.502;16.732;2022-11-22T22:11:52;71.35;;;23.98;;
72319;SDS011;60269;52.502;16.732;2022-11-22T22:15:23;60.88;;;20.92;;
72319;SDS011;60269;52.502;16.732;2022-11-22T22:18:55;69.97;;;21.90;;
72319;SDS011;60269;52.502;16.732;2022-11-22T22:22:28;56.93;;;21.27;;
72319;SDS011;60269;52.502;16.732;2022-11-22T22:26:00;64.50;;;21.70;;
72319;SDS011;60269;52.502;16.732;2022-11-22T22:29:34;65.10;;;22.10;;
72319;SDS011;60269;52.502;16.732;2022-11-22T22:33:06;59.03;;;20.37;;